Alpha, Illinois
Current Conditions -  °F | °C
As of 11:52 PM on Friday 31 Oct 2014 (Local Time) from KMLI Reporting Station
Clear Clear  
Wind Chill: -3°   Ceiling: Unl
Heat Index:   Visibility: 10mi
Dew Point: -8°   Wind: 6mph
Humidity: 56%   Direction: 360°N
Pressure: 30.44"   Gusts: NA
Location:  41.19°N, 90.38°W
Report Text: KMLI 010452Z AUTO 36005KT 10SM CLR 00/M08 A3044 RMK AO2 SLP315 T00001078 $
Loading
Personal Weather Stations






























Interactive Weather Map
Tropical Storm Tracking
New forecast layout! Learn more

10-Day Weather Forecast

Advertisements
Track Severe Weather on mobile